Latest Weather Observations for Kanagulk

IDV60801

Issued at 9:35 am EDT Tuesday 21 October 2014 (issued every 30 minutes, with the page automatically refreshed every 10 minutes)

About weather observations | Map of weather stations | Latest weather observations for VIC | Other Formats
Station Details ID: 079097 Name: KANAGULK Lat: -37.12 Lon: 141.80 Height: 188.8 m
Data from the previous 72 hours. | See also: Recent months at Kanagulk
Date/Time
EDT
Temp
°C
App
Temp
°C
Dew
Point
Rel
Hum
%
Delta-T
°C
Wind Press
QNH
hPa
Press
MSL
hPa
Rain
since 9 am
mm
Dir
 
Spd
km/h
Gust
km/h
Spd
kts
Gust
kts
21/09:30am 16.8 10.4 6.9 52 4.9 NNE 30 39 16 21 1024.7 1024.6 0.0
21/09:00am 14.8 8.5 5.9 55 4.3 NE 28 32 15 17 1024.7 1024.6 0.0
21/08:30am 10.8 8.9 7.7 81 1.5 NE 7 9 4 5 1024.8 1024.7 0.0
21/08:00am 8.2 7.6 7.6 96 0.3 CALM 0 0 0 0 1024.7 1024.6 0.0
21/07:30am 5.2 4.0 4.6 96 0.3 CALM 0 4 0 2 1024.6 1024.5 0.0
21/07:00am 4.0 1.2 3.4 96 0.2 ENE 7 9 4 5 1024.4 1024.3 0.0
21/06:30am 4.6 2.5 4.0 96 0.3 SSE 4 7 2 4 1023.7 1023.7 0.0
21/06:00am 4.7 2.2 4.0 95 0.3 SE 6 9 3 5 1023.4 1023.4 0.0
21/05:30am 5.0 3.7 4.3 95 0.3 CALM 0 0 0 0 1023.3 1023.3 0.0
21/05:00am 4.7 3.3 3.7 93 0.4 CALM 0 0 0 0 1023.5 1023.5 0.0
21/04:30am 4.8 3.4 3.6 92 0.5 CALM 0 0 0 0 1023.5 1023.5 0.0
21/04:00am 5.7 4.4 4.2 90 0.6 CALM 0 0 0 0 1023.5 1023.5 0.0
21/03:30am 6.1 4.9 4.4 89 0.7 CALM 0 0 0 0 1023.8 1023.8 0.0
21/03:00am 6.9 4.7 5.2 89 0.8 SE 6 9 3 5 1024.1 1024.1 0.0
21/02:30am 6.0 3.4 4.0 87 0.9 SSE 7 9 4 5 1024.4 1024.3 0.0
21/02:00am 7.0 5.3 4.0 81 1.3 SE 2 6 1 3 1024.7 1024.6 0.0
21/01:30am 8.3 5.9 5.2 81 1.4 S 7 9 4 5 1025.0 1024.9 0.0
21/01:00am 7.9 5.0 4.8 81 1.4 SSE 9 11 5 6 1025.2 1025.1 0.0
21/12:30am 8.3 5.1 5.2 81 1.4 SSE 11 15 6 8 1025.4 1025.3 0.0
21/12:00am 8.1 4.7 3.9 75 1.8 SSE 11 13 6 7 1025.6 1025.6 0.0
 
Date/Time
EDT
Temp
°C
App
Temp
°C
Dew
Point
Rel
Hum
%
Delta-T
°C
Wind Press
QNH
hPa
Press
MSL
hPa
Rain
since 9 am
mm
Dir
 
Spd
km/h
Gust
km/h
Spd
kts
Gust
kts
20/11:30pm 8.9 5.8 3.5 69 2.4 S 9 11 5 6 1025.6 1025.6 0.0
20/11:00pm 9.9 7.4 4.7 70 2.3 SSE 7 7 4 4 1025.7 1025.7 0.0
20/10:30pm 10.7 8.1 4.2 64 2.9 SSE 7 9 4 5 1025.7 1025.7 0.0
20/10:00pm 11.3 8.0 4.3 62 3.2 SSE 11 13 6 7 1025.6 1025.6 0.0
20/09:30pm 11.6 7.8 4.1 60 3.4 SSE 13 15 7 8 1025.6 1025.6 0.0
20/09:00pm 12.8 9.0 4.0 55 4.0 SSE 13 15 7 8 1025.5 1025.5 0.0
20/08:30pm 14.0 10.2 3.8 50 4.7 SSE 13 17 7 9 1025.1 1025.0 0.0
20/08:00pm 15.3 11.4 3.5 45 5.4 SSE 13 17 7 9 1024.9 1024.8 0.0
20/07:30pm 17.4 12.9 4.0 41 6.3 SSE 17 22 9 12 1024.7 1024.6 0.0
20/07:00pm 19.1 14.0 4.1 37 7.2 SSE 20 30 11 16 1024.5 1024.4 0.0
20/06:30pm 20.5 14.6 4.1 34 8.0 SSE 24 32 13 17 1024.5 1024.4 0.0
20/06:00pm 21.5 15.6 4.1 32 8.5 S 24 32 13 17 1024.8 1024.7 0.0
20/05:30pm 22.3 17.1 3.4 29 9.2 S 20 32 11 17 1025.0 1024.9 0.0
20/05:00pm 22.9 17.7 3.4 28 9.5 S 20 28 11 15 1025.0 1024.9 0.0
20/04:30pm 22.7 18.0 3.3 28 9.4 S 17 24 9 13 1025.2 1025.1 0.0
20/04:00pm 22.7 18.3 2.8 27 9.5 SSE 15 24 8 13 1025.4 1025.3 0.0
20/03:30pm 22.6 17.4 3.7 29 9.2 S 20 26 11 14 1025.6 1025.6 0.0
20/03:00pm 22.1 17.4 3.3 29 9.0 SSE 17 22 9 12 1025.8 1025.8 0.0
20/02:30pm 21.4 17.5 3.6 31 8.6 S 13 20 7 11 1026.1 1026.1 0.0
20/02:00pm 21.0 17.0 2.8 30 8.6 ESE 13 20 7 11 1026.5 1026.5 0.0
20/01:30pm 20.0 16.1 3.3 33 8.0 S 13 20 7 11 1026.6 1026.6 0.0
20/01:00pm 19.8 15.9 3.5 34 7.7 S 13 20 7 11 1027.1 1027.1 0.0
20/12:30pm 19.1 15.6 3.7 36 7.3 S 11 28 6 15 1027.6 1027.6 0.0
20/12:00pm 17.9 15.0 2.6 36 7.0 ESE 7 13 4 7 1028.0 1028.0 0.0
20/11:30am 16.8 13.6 2.8 39 6.4 S 9 15 5 8 1028.5 1028.5 0.0
20/11:00am 15.8 12.5 2.6 41 6.0 SSE 9 15 5 8 1028.7 1028.7 0.0
20/10:30am 15.4 12.9 5.0 50 5.0 SSE 7 15 4 8 1028.7 1028.7 0.0
20/10:00am 13.9 11.4 4.5 53 4.3 ESE 7 13 4 7 1028.7 1028.7 0.0
20/09:30am 13.2 10.3 4.9 57 3.9 SSE 9 15 5 8 1028.6 1028.6 0.0
20/09:00am 12.1 8.9 5.0 62 3.3 SSE 11 17 6 9 1028.3 1028.3 0.0
20/08:30am 11.0 7.0 4.9 66 2.8 SE 15 20 8 11 1027.7 1027.7 0.0
20/08:00am 10.0 6.2 5.6 74 2.0 SSE 15 20 8 11 1027.3 1027.3 0.0
20/07:30am 8.6 5.2 5.7 82 1.3 SSE 13 17 7 9 1027.2 1027.2 0.0
20/07:00am 7.7 3.8 5.3 85 1.1 SSE 15 17 8 9 1026.8 1026.8 0.0
20/06:30am 7.3 3.7 4.8 84 1.1 SSE 13 17 7 9 1026.5 1026.5 0.0
20/06:00am 7.7 3.7 4.8 82 1.3 SSE 15 20 8 11 1026.1 1026.1 0.0
20/05:30am 7.9 3.5 4.8 81 1.4 SSE 17 22 9 12 1025.8 1025.8 0.0
20/05:00am 8.3 3.4 5.1 80 1.4 SSE 20 26 11 14 1025.8 1025.8 0.0
20/04:30am 8.6 3.8 5.7 82 1.3 SSE 20 26 11 14 1025.8 1025.8 0.0
20/04:00am 8.9 4.4 6.2 83 1.2 SSE 19 24 10 13 1025.5 1025.5 0.0
20/03:30am 9.2 3.9 6.8 85 1.1 SSE 24 35 13 19 1025.5 1025.5 0.0
20/03:00am 9.5 3.1 7.1 85 1.1 SSE 30 39 16 21 1025.6 1025.6 0.0
20/02:30am 9.9 3.3 7.7 86 1.1 SSE 32 44 17 24 1025.7 1025.7 0.0
20/02:00am 10.1 3.5 7.9 86 1.1 SSE 32 46 17 25 1025.9 1025.9 0.0
20/01:30am 10.3 3.2 8.1 86 1.1 SSE 35 46 19 25 1025.9 1025.9 0.0
20/01:00am 10.3 4.1 7.9 85 1.2 SSE 30 39 16 21 1026.2 1026.2 0.0
20/12:41am 10.5 4.7 7.9 84 1.3 SSE 28 46 15 25 1026.2 1026.2 0.0
20/12:30am 10.7 3.9 7.9 83 1.4 SSE 33 46 18 25 1026.1 1026.1 0.0
20/12:05am 11.0 4.5 8.2 83 1.4 SSE 32 50 17 27 1026.1 1026.1 0.0
20/12:00am 11.2 4.2 8.4 83 1.4 SSE 35 50 19 27 1026.1 1026.1 0.0
 
Date/Time
EDT
Temp
°C
App
Temp
°C
Dew
Point
Rel
Hum
%
Delta-T
°C
Wind Press
QNH
hPa
Press
MSL
hPa
Rain
since 9 am
mm
Dir
 
Spd
km/h
Gust
km/h
Spd
kts
Gust
kts
19/11:39pm 11.6 5.3 9.0 84 1.3 SSE 32 54 17 29 1026.1 1026.1 0.0
19/11:30pm 11.6 5.3 9.0 84 1.3 SSE 32 46 17 25 1026.2 1026.2 0.0
19/11:00pm 11.5 4.9 8.7 83 1.4 SSE 33 46 18 25 1026.1 1026.1 0.0
19/10:30pm 11.9 5.6 8.9 82 1.5 SSE 32 46 17 25 1026.5 1026.5 0.0
19/10:00pm 12.2 6.0 9.2 82 1.5 SSE 32 43 17 23 1026.0 1026.0 0.0
19/09:30pm 12.7 6.5 9.3 80 1.7 SSE 32 43 17 23 1025.8 1025.8 0.0
19/09:00pm 13.1 6.9 9.4 78 1.9 SSE 32 46 17 25 1025.5 1025.5 0.0
19/08:30pm 13.9 8.6 9.7 76 2.2 SSE 28 39 15 21 1025.1 1025.0 0.0
19/08:00pm 14.3 9.1 10.1 76 2.2 S 28 37 15 20 1024.8 1024.7 0.0
19/07:30pm 14.6 10.9 10.2 75 2.3 S 20 28 11 15 1024.4 1024.3 0.0
19/07:00pm 15.1 10.0 10.5 74 2.4 SSE 28 44 15 24 1023.3 1023.3 0.0
19/06:30pm 16.2 10.6 11.6 74 2.5 S 32 46 17 25 1023.5 1023.5 0.0
19/06:00pm 17.1 12.0 11.8 71 2.9 S 30 43 16 23 1022.8 1022.8 0.0
19/05:30pm 18.5 14.0 12.5 68 3.4 S 28 43 15 23 1022.0 1022.0 0.0
19/05:00pm 21.3 16.1 13.5 61 4.5 S 33 46 18 25 1021.5 1021.5 0.0
19/04:30pm 25.4 21.7 11.6 42 7.9 SSW 22 33 12 18 1020.6 1020.5 0.0
19/04:00pm 28.9 24.7 5.7 23 12.2 SW 17 28 9 15 1020.0 1019.9 0.0
19/03:30pm 29.4 24.2 0.1 15 14.1 W 17 30 9 16 1020.1 1020.0 0.0
19/03:00pm 29.7 24.7 1.2 16 13.9 W 17 28 9 15 1020.1 1020.0 0.0
19/02:30pm 29.8 24.1 0.4 15 14.2 WSW 20 28 11 15 1020.1 1020.0 0.0
19/02:00pm 30.8 26.0 0.2 14 14.8 WNW 15 28 8 15 1020.1 1020.0 0.0
19/01:30pm 30.0 24.5 0.6 15 14.3 WNW 19 28 10 15 1020.0 1019.9 0.0
19/01:00pm 30.1 24.1 -1.3 13 14.8 NW 20 35 11 19 1020.0 1019.9 0.0
19/12:30pm 29.4 24.2 0.1 15 14.1 WNW 17 28 9 15 1020.2 1020.1 0.0
19/12:00pm 27.7 22.7 1.2 18 12.8 NW 17 32 9 17 1020.3 1020.2 0.0
19/11:30am 25.3 20.7 1.4 21 11.4 NNW 15 26 8 14 1020.5 1020.4 0.0
19/11:00am 23.6 19.3 0.7 22 10.6 NNW 13 20 7 11 1020.7 1020.6 0.0
19/10:30am 22.5 18.2 0.9 24 10.0 NNW 13 19 7 10 1020.7 1020.6 0.0
19/10:00am 21.7 16.6 0.8 25 9.6 N 17 26 9 14 1020.6 1020.5 0.0
19/09:30am 20.9 16.6 0.7 26 9.2 N 13 20 7 11 1020.7 1020.6 0.0
19/09:00am 18.5 14.1 0.2 29 8.1 N 13 20 7 11 1020.8 1020.7 0.0
19/08:30am 17.0 12.1 -0.7 30 7.6 N 15 22 8 12 1020.8 1020.7 0.0
19/08:00am 16.8 12.3 -0.4 31 7.4 N 13 19 7 10 1020.6 1020.5 0.0
19/07:30am 14.6 10.0 -0.7 35 6.4 NE 13 15 7 8 1020.5 1020.4 0.0
19/07:00am 14.3 9.7 -0.9 35 6.3 NNE 13 17 7 9 1020.1 1020.0 0.0
19/06:30am 14.6 10.0 -1.1 34 6.5 NE 13 17 7 9 1019.6 1019.5 0.0
19/06:00am 15.0 10.4 -0.7 34 6.6 NE 13 15 7 8 1019.4 1019.3 0.0
19/05:30am 14.1 9.2 -0.7 36 6.2 NNE 15 19 8 10 1019.1 1019.0 0.0
19/05:00am 14.6 10.4 -1.1 34 6.5 NNE 11 15 6 8 1019.3 1019.2 0.0
19/04:30am 16.3 11.4 -0.8 31 7.3 N 15 20 8 11 1019.3 1019.2 0.0
19/04:00am 16.7 12.2 -0.1 32 7.2 N 13 20 7 11 1019.4 1019.3 0.0
19/03:30am 12.8 9.0 1.5 46 4.9 N 11 15 6 8 1019.7 1019.6 0.0
19/03:00am 11.1 6.8 0.8 49 4.3 NNE 13 15 7 8 1019.9 1019.8 0.0
19/02:30am 11.6 7.7 1.0 48 4.5 NNE 11 13 6 7 1020.2 1020.1 0.0
19/02:00am 12.2 8.8 1.8 49 4.5 NE 9 11 5 6 1020.4 1020.3 0.0
19/01:30am 11.7 9.3 2.2 52 4.1 E 4 9 2 5 1020.6 1020.5 0.0
19/01:00am 12.5 9.5 2.1 49 4.5 NE 7 9 4 5 1020.8 1020.7 0.0
19/12:30am 14.5 11.3 0.7 39 6.0 NNE 7 7 4 4 1021.1 1021.1 0.0
19/12:00am 14.0 11.8 1.3 42 5.5 NNE 2 7 1 4 1021.0 1021.0 0.0
 
Date/Time
EDT
Temp
°C
App
Temp
°C
Dew
Point
Rel
Hum
%
Delta-T
°C
Wind Press
QNH
hPa
Press
MSL
hPa
Rain
since 9 am
mm
Dir
 
Spd
km/h
Gust
km/h
Spd
kts
Gust
kts
18/11:30pm 15.5 12.2 0.1 35 6.6 NNE 7 13 4 7 1021.0 1021.0 0.0
18/11:00pm 16.2 13.2 2.2 39 6.3 N 7 9 4 5 1021.1 1021.1 0.0
18/10:30pm 17.6 14.9 2.4 36 7.0 N 6 9 3 5 1021.1 1021.1 0.0
18/10:00pm 19.0 15.1 1.1 30 8.1 NNE 11 15 6 8 1021.4 1021.4 0.0
18/09:30pm 20.0 17.9 1.9 30 8.4 NW 2 7 1 4 1021.1 1021.1 0.0
18/09:00pm 21.8 18.8 0.9 25 9.6 W 6 9 3 5 1020.8 1020.7 0.0
18/08:30pm 19.4 16.7 2.7 33 7.8 NW 6 11 3 6 1020.4 1020.3 0.0
18/08:00pm 22.4 19.6 2.0 26 9.6 N 6 9 3 5 1019.9 1019.8 0.0
18/07:30pm 25.7 22.6 1.1 20 11.7 NW 7 11 4 6 1019.8 1019.7 0.0
18/07:00pm 27.7 23.4 1.2 18 12.8 NW 13 19 7 10 1019.6 1019.5 0.0
18/06:30pm 28.0 22.9 -2.0 14 13.7 NW 15 24 8 13 1019.6 1019.5 0.0
18/06:00pm 29.0 23.6 -1.2 14 14.1 NNW 17 33 9 18 1019.6 1019.5 0.0
18/05:30pm 29.1 22.6 -2.1 13 14.4 N 22 32 12 17 1019.5 1019.4 0.0
18/05:00pm 29.5 23.7 -1.8 13 14.5 NW 19 30 10 16 1019.6 1019.5 0.0
18/04:30pm 28.5 23.2 -0.6 15 13.7 N 17 26 9 14 1019.8 1019.7 0.0
18/04:00pm 27.7 22.7 -1.3 15 13.4 NNW 15 22 8 12 1020.1 1020.0 0.0
18/03:30pm 29.6 23.2 -1.7 13 14.6 N 22 35 12 19 1020.3 1020.2 0.0
18/03:00pm 28.7 22.3 -1.4 14 14.0 N 22 41 12 22 1020.6 1020.5 0.0
18/02:30pm 27.0 20.7 -0.9 16 12.9 N 22 41 12 22 1021.2 1021.2 0.0
18/02:00pm 26.9 20.3 -0.2 17 12.7 N 24 37 13 20 1021.6 1021.6 0.0
18/01:30pm 26.8 20.5 -1.1 16 12.9 N 22 37 12 20 1021.9 1021.9 0.0
18/01:00pm 25.9 19.2 -1.0 17 12.3 N 24 39 13 21 1022.4 1022.4 0.0
18/12:30pm 24.3 16.9 -0.8 19 11.4 N 28 46 15 25 1022.8 1022.8 0.0
18/12:29pm 25.0 17.8 0.5 20 11.5 N 28 46 15 25 1022.8 1022.8 0.0
18/12:00pm 23.9 16.0 0.9 22 10.7 N 32 44 17 24 1023.3 1023.3 0.0
18/11:30am 23.0 15.7 0.2 22 10.5 NNE 28 39 15 21 1024.0 1024.0 0.0
18/11:00am 21.0 13.7 -0.3 24 9.5 NNE 28 37 15 20 1024.4 1024.3 0.0
18/10:30am 20.8 14.4 1.1 27 9.0 NNE 24 37 13 20 1024.7 1024.6 0.0
18/10:00am 18.5 12.9 1.1 31 7.8 N 20 32 11 17 1025.2 1025.1 0.0

Other Formats:

Comma delimited format used in spreadsheet applications
http://www.bom.gov.au/fwo/IDV60801/IDV60801.95827.axf

JavaScript Object Notation format (JSON) in row-major order
http://www.bom.gov.au/fwo/IDV60801/IDV60801.95827.json